createdAt,value
2023-02-11T00:03:42.262Z,53.67
2023-02-11T00:06:45.276Z,53.87
2023-02-11T00:09:48.109Z,50.45
2023-02-11T00:12:50.967Z,51.88
2023-02-11T00:15:55.065Z,53.03
2023-02-11T00:19:03.001Z,56.28
2023-02-11T00:22:06.202Z,53.75
2023-02-11T00:25:09.123Z,49.35
2023-02-11T00:28:12.124Z,53.70
2023-02-11T00:31:18.089Z,52.40
2023-02-11T00:34:21.090Z,51.97
2023-02-11T00:37:24.075Z,57.45
2023-02-11T00:40:27.589Z,50.33
2023-02-11T00:43:30.391Z,53.67
2023-02-11T00:46:33.274Z,49.53
2023-02-11T00:49:37.072Z,53.33
2023-02-11T00:52:39.879Z,53.58
2023-02-11T00:55:42.702Z,53.13
2023-02-11T00:58:45.650Z,54.47
2023-02-11T01:01:48.570Z,48.65
2023-02-11T01:04:51.513Z,52.03
2023-02-11T01:07:54.474Z,47.45
2023-02-11T01:11:00.132Z,40.20
2023-02-11T01:14:03.659Z,42.55
2023-02-11T01:20:15.278Z,33.95
2023-02-11T01:23:18.549Z,40.40
2023-02-11T01:26:21.501Z,41.50
2023-02-11T01:29:25.900Z,42.47
2023-02-11T01:32:30.342Z,40.53
2023-02-11T01:35:33.249Z,46.67
2023-02-11T01:38:36.300Z,42.08
2023-02-11T01:41:39.243Z,44.28
2023-02-11T01:44:42.703Z,42.20
2023-02-11T01:47:45.545Z,42.53
2023-02-11T01:50:52.735Z,39.80
2023-02-11T01:54:16.428Z,42.33
2023-02-11T01:57:27.305Z,49.80
2023-02-11T02:00:36.223Z,44.78
2023-02-11T02:03:43.863Z,51.70
2023-02-11T02:06:56.003Z,46.75
2023-02-11T02:10:07.119Z,53.65
2023-02-11T02:13:12.118Z,46.42
2023-02-11T02:19:40.068Z,52.03
2023-02-11T02:23:22.289Z,54.70
2023-02-11T02:26:52.756Z,47.62
2023-02-11T02:30:20.785Z,49.67
2023-02-11T02:33:35.502Z,53.47
2023-02-11T02:36:47.456Z,52.42
2023-02-11T02:39:50.655Z,48.87
2023-02-11T02:42:55.738Z,54.13
2023-02-11T02:46:11.664Z,56.50
2023-02-11T02:49:16.188Z,54.15
2023-02-11T02:52:34.236Z,51.03
2023-02-11T02:55:55.249Z,60.67
2023-02-11T02:59:24.994Z,57.38
2023-02-11T03:02:42.195Z,60.75
2023-02-11T03:05:54.338Z,56.80
2023-02-11T03:09:22.450Z,59.13
2023-02-11T03:12:30.052Z,67.65
2023-02-11T03:15:41.908Z,56.00
2023-02-11T03:18:50.509Z,64.60
2023-02-11T03:21:55.002Z,66.72
2023-02-11T03:24:57.858Z,69.85
2023-02-11T03:28:13.942Z,69.87
2023-02-11T03:31:37.802Z,60.83
2023-02-11T03:35:07.830Z,65.68
2023-02-11T03:38:21.902Z,64.57
2023-02-11T03:41:25.664Z,59.42
2023-02-11T03:44:34.240Z,63.38
2023-02-11T03:47:40.371Z,58.03
2023-02-11T03:50:45.900Z,59.28
2023-02-11T03:53:53.027Z,61.60
2023-02-11T03:56:59.706Z,61.20
2023-02-11T04:00:04.449Z,67.37
2023-02-11T04:03:14.352Z,65.75
2023-02-11T04:09:21.573Z,59.45
2023-02-11T04:15:27.312Z,59.45
2023-02-11T04:18:30.465Z,62.13
2023-02-11T04:21:33.043Z,60.88
2023-02-11T04:24:36.403Z,61.65
2023-02-11T04:27:39.491Z,60.22
2023-02-11T04:30:42.657Z,55.05
2023-02-11T04:33:45.299Z,56.17
2023-02-11T04:36:48.461Z,55.78
2023-02-11T04:39:51.079Z,57.83
2023-02-11T04:42:54.219Z,57.90
2023-02-11T04:45:58.851Z,62.67
2023-02-11T04:49:02.229Z,59.35
2023-02-11T04:52:05.162Z,60.60
2023-02-11T04:55:08.970Z,57.58
2023-02-11T04:58:11.550Z,56.85
2023-02-11T05:01:16.021Z,58.38
2023-02-11T05:04:19.145Z,60.17
2023-02-11T05:07:22.502Z,64.47
2023-02-11T05:10:25.264Z,61.63
2023-02-11T05:13:29.309Z,57.83
2023-02-11T05:16:32.632Z,55.92
2023-02-11T05:19:35.786Z,63.75
2023-02-11T05:22:38.310Z,68.70
2023-02-11T05:25:41.501Z,63.72
2023-02-11T05:28:45.241Z,62.10
2023-02-11T05:31:48.487Z,59.80
2023-02-11T05:34:51.050Z,60.83
2023-02-11T05:37:54.515Z,83.85
2023-02-11T05:40:57.449Z,75.57
2023-02-11T05:47:03.153Z,69.05
2023-02-11T05:50:06.630Z,68.28
2023-02-11T05:53:09.284Z,72.57
2023-02-11T05:56:12.617Z,69.93
2023-02-11T05:59:15.369Z,71.47
2023-02-11T06:02:18.593Z,74.97
2023-02-11T06:05:21.837Z,73.53
2023-02-11T06:08:24.871Z,70.28
2023-02-11T06:11:27.847Z,69.87
2023-02-11T06:14:33.715Z,69.47
2023-02-11T06:17:37.444Z,68.32
2023-02-11T06:20:41.563Z,69.32
2023-02-11T06:23:44.746Z,76.60
2023-02-11T06:26:47.636Z,69.97
2023-02-11T06:29:52.472Z,72.55
2023-02-11T06:32:55.493Z,65.35
2023-02-11T06:35:58.431Z,72.22
2023-02-11T06:39:01.330Z,75.93
2023-02-11T06:42:07.678Z,72.75
2023-02-11T06:45:13.032Z,73.18
2023-02-11T06:48:17.053Z,73.15
2023-02-11T06:51:20.046Z,74.45
2023-02-11T06:54:23.047Z,68.45
2023-02-11T06:57:25.890Z,68.37
2023-02-11T07:00:29.687Z,68.87
2023-02-11T07:03:37.730Z,64.50
2023-02-11T07:06:41.125Z,62.10
2023-02-11T07:09:44.121Z,63.97
2023-02-11T07:12:47.031Z,64.12
2023-02-11T07:15:50.526Z,64.20
2023-02-11T07:18:54.275Z,69.35
2023-02-11T07:25:01.814Z,62.92
2023-02-11T07:28:04.973Z,65.40
2023-02-11T07:31:13.755Z,63.20
2023-02-11T07:34:18.010Z,65.28
2023-02-11T07:37:20.897Z,64.80
2023-02-11T07:40:23.693Z,72.68
2023-02-11T07:43:26.940Z,63.38
2023-02-11T07:46:29.875Z,61.45
2023-02-11T07:49:32.975Z,57.45
2023-02-11T07:52:36.102Z,57.58
2023-02-11T07:55:38.993Z,58.65
2023-02-11T07:58:43.204Z,64.32
2023-02-11T08:01:46.344Z,62.40
2023-02-11T08:04:50.113Z,59.72
2023-02-11T08:07:54.197Z,56.45
2023-02-11T08:10:57.606Z,55.60
2023-02-11T08:14:00.529Z,56.72
2023-02-11T08:17:04.238Z,59.42
2023-02-11T08:20:07.744Z,60.72
2023-02-11T08:23:11.025Z,55.12
2023-02-11T08:26:22.292Z,54.60
2023-02-11T08:29:25.583Z,50.65
2023-02-11T08:32:28.414Z,56.45
2023-02-11T08:35:33.131Z,50.28
2023-02-11T08:38:35.747Z,53.03
2023-02-11T08:41:39.004Z,50.22
2023-02-11T08:44:42.355Z,47.93
2023-02-11T08:47:46.480Z,48.97
2023-02-11T08:50:49.477Z,45.83
2023-02-11T08:53:52.618Z,42.05
2023-02-11T08:56:55.215Z,43.77
2023-02-11T08:59:58.492Z,39.55
2023-02-11T09:03:01.544Z,41.10
2023-02-11T09:06:06.304Z,42.17
2023-02-11T09:09:13.566Z,39.08
2023-02-11T09:12:16.862Z,40.03
2023-02-11T09:15:19.585Z,40.33
2023-02-11T09:18:22.741Z,39.22
2023-02-11T09:21:25.393Z,36.63
2023-02-11T09:24:28.539Z,40.08
2023-02-11T09:27:31.260Z,38.00
2023-02-11T09:30:36.608Z,35.50
2023-02-11T09:33:42.197Z,40.88
2023-02-11T09:36:45.444Z,36.00
2023-02-11T09:39:48.157Z,36.83
2023-02-11T09:43:12.056Z,38.25
2023-02-11T09:46:17.194Z,36.67
2023-02-11T09:49:26.502Z,38.58
2023-02-11T09:53:18.676Z,35.78
2023-02-11T09:56:23.633Z,36.53
2023-02-11T09:59:26.263Z,39.35
2023-02-11T10:02:58.313Z,37.88
2023-02-11T10:06:20.150Z,39.42
2023-02-11T10:09:47.956Z,39.80
2023-02-11T10:13:03.223Z,37.38
2023-02-11T10:16:24.304Z,40.00
2023-02-11T10:19:38.876Z,41.92
2023-02-11T10:22:46.529Z,36.45
2023-02-11T10:25:54.526Z,40.12
2023-02-11T10:29:02.336Z,38.10
2023-02-11T10:32:19.452Z,43.58
2023-02-11T10:35:23.848Z,42.95
2023-02-11T10:38:27.825Z,41.45
2023-02-11T10:41:38.041Z,41.20
2023-02-11T10:45:17.802Z,39.17
2023-02-11T10:48:39.422Z,41.50
2023-02-11T10:51:42.497Z,38.83
2023-02-11T10:55:00.328Z,42.00
2023-02-11T10:58:04.731Z,41.55
2023-02-11T11:01:23.569Z,41.08
2023-02-11T11:04:30.671Z,43.78
2023-02-11T11:07:36.729Z,39.78
2023-02-11T11:11:04.671Z,38.00
2023-02-11T11:14:19.610Z,34.95
2023-02-11T11:17:22.684Z,40.95
2023-02-11T11:20:32.289Z,37.88
2023-02-11T11:23:36.928Z,37.38
2023-02-11T11:26:45.661Z,38.40
2023-02-11T11:29:51.591Z,36.97
2023-02-11T11:32:54.914Z,38.75
2023-02-11T11:36:10.303Z,39.08
2023-02-11T11:39:15.851Z,36.42
2023-02-11T11:42:27.690Z,37.40
2023-02-11T11:45:30.600Z,37.63
2023-02-11T11:48:49.825Z,37.50
2023-02-11T11:52:19.544Z,34.78
2023-02-11T11:55:32.110Z,35.47
2023-02-11T11:58:35.259Z,34.80
2023-02-11T12:01:49.071Z,33.35
2023-02-11T12:05:23.203Z,31.70
2023-02-11T12:08:54.322Z,32.88
2023-02-11T12:12:13.226Z,31.08
2023-02-11T12:15:37.479Z,31.02
2023-02-11T12:19:08.172Z,33.28
2023-02-11T12:22:11.021Z,40.33
2023-02-11T12:28:45.388Z,31.05
2023-02-11T12:32:21.886Z,32.58
2023-02-11T12:35:43.323Z,30.50
2023-02-11T12:38:54.132Z,30.95
2023-02-11T12:42:33.700Z,28.20
2023-02-11T12:46:02.639Z,28.75
2023-02-11T12:49:37.877Z,28.80
2023-02-11T12:52:55.944Z,31.33
2023-02-11T12:56:05.247Z,27.42
2023-02-11T12:59:20.777Z,26.23
2023-02-11T13:02:56.082Z,27.92
2023-02-11T13:06:05.739Z,26.37
2023-02-11T13:09:18.918Z,23.77
2023-02-11T13:12:41.607Z,29.15
2023-02-11T13:16:07.761Z,26.00
2023-02-11T13:19:13.733Z,21.40
2023-02-11T13:22:25.053Z,23.55
2023-02-11T13:25:39.514Z,21.37
2023-02-11T13:28:45.375Z,24.58
2023-02-11T13:32:10.875Z,22.92
2023-02-11T13:35:54.609Z,21.65
2023-02-11T13:39:01.740Z,24.55
2023-02-11T13:42:05.399Z,24.15
2023-02-11T13:48:28.000Z,24.55
2023-02-11T13:51:42.939Z,27.55
2023-02-11T13:54:52.943Z,25.77
2023-02-11T13:58:08.382Z,25.10
2023-02-11T14:01:10.956Z,31.15
2023-02-11T14:04:43.492Z,25.33
2023-02-11T14:08:29.909Z,22.30
2023-02-11T14:11:33.295Z,25.75
2023-02-11T14:15:15.863Z,23.58
2023-02-11T14:18:39.547Z,24.10
2023-02-11T14:21:44.592Z,28.62
2023-02-11T14:25:15.121Z,27.83
2023-02-11T14:28:34.480Z,23.98
2023-02-11T14:32:11.225Z,25.17
2023-02-11T14:35:26.919Z,26.15
2023-02-11T14:38:43.786Z,33.03
2023-02-11T14:41:51.221Z,28.50
2023-02-11T14:44:59.146Z,25.67
2023-02-11T14:48:26.626Z,28.83
2023-02-11T14:51:39.829Z,28.45
2023-02-11T14:54:44.678Z,27.83
2023-02-11T14:57:50.722Z,23.48
2023-02-11T15:01:02.394Z,28.52
2023-02-11T15:04:21.679Z,27.73
2023-02-11T15:07:24.271Z,24.87
2023-02-11T15:10:41.590Z,26.95
2023-02-11T15:13:47.602Z,25.80
2023-02-11T15:16:55.722Z,29.08
2023-02-11T15:20:01.954Z,24.33
2023-02-11T15:23:09.377Z,29.90
2023-02-11T15:26:21.399Z,28.08
2023-02-11T15:29:26.772Z,29.83
2023-02-11T15:32:29.403Z,25.70
2023-02-11T15:35:36.589Z,25.50
2023-02-11T15:38:40.829Z,32.95
2023-02-11T15:41:44.646Z,32.47
2023-02-11T15:44:54.337Z,29.50
2023-02-11T15:48:02.070Z,27.40
2023-02-11T15:51:30.128Z,28.42
2023-02-11T15:54:33.379Z,28.83
2023-02-11T15:57:36.869Z,27.05
2023-02-11T16:00:48.197Z,28.38
2023-02-11T16:03:53.519Z,30.15
2023-02-11T16:06:57.455Z,26.08
2023-02-11T16:10:00.324Z,27.02
2023-02-11T16:13:05.989Z,30.10
2023-02-11T16:16:19.754Z,27.25
2023-02-11T16:19:25.714Z,31.40
2023-02-11T16:22:35.341Z,27.27
2023-02-11T16:25:42.184Z,26.77
2023-02-11T16:28:45.531Z,28.52
2023-02-11T16:31:50.325Z,29.77
2023-02-11T16:34:55.233Z,30.85
2023-02-11T16:37:58.451Z,32.80
2023-02-11T16:41:01.318Z,32.08
2023-02-11T16:44:04.346Z,35.60
2023-02-11T16:47:19.648Z,34.05
2023-02-11T16:50:25.016Z,32.75
2023-02-11T16:53:27.971Z,28.40
2023-02-11T16:56:30.890Z,33.47
2023-02-11T16:59:35.261Z,32.90
2023-02-11T17:02:38.997Z,30.75
2023-02-11T17:05:54.681Z,31.37
2023-02-11T17:08:58.963Z,31.00
2023-02-11T17:12:01.951Z,30.55
2023-02-11T17:15:07.445Z,29.58
2023-02-11T17:18:14.269Z,30.77
2023-02-11T17:21:17.524Z,29.83
2023-02-11T17:24:21.901Z,29.10
2023-02-11T17:27:25.048Z,28.05
2023-02-11T17:30:27.937Z,32.70
2023-02-11T17:33:30.792Z,30.12
2023-02-11T17:36:33.703Z,34.33
2023-02-11T17:39:38.083Z,28.75
2023-02-11T17:42:40.918Z,30.85
2023-02-11T17:45:43.825Z,34.38
2023-02-11T17:48:47.110Z,29.85
2023-02-11T17:51:50.064Z,31.12
2023-02-11T17:54:53.197Z,28.73
2023-02-11T17:58:07.881Z,29.20
2023-02-11T18:01:20.895Z,30.77
2023-02-11T18:04:24.968Z,32.05
2023-02-11T18:07:27.711Z,30.02
2023-02-11T18:10:31.283Z,31.67
2023-02-11T18:13:33.813Z,31.48
2023-02-11T18:16:39.150Z,29.73
2023-02-11T18:19:41.808Z,26.58
2023-02-11T18:22:45.107Z,29.25
2023-02-11T18:25:47.681Z,29.27
2023-02-11T18:28:52.584Z,30.80
2023-02-11T18:31:56.912Z,29.90
2023-02-11T18:35:00.086Z,30.27
2023-02-11T18:38:02.596Z,28.60
2023-02-11T18:41:09.662Z,29.85
2023-02-11T18:44:14.297Z,28.10
2023-02-11T18:47:17.452Z,29.00
2023-02-11T18:50:22.070Z,30.97
2023-02-11T18:53:25.236Z,28.85
2023-02-11T18:56:27.913Z,27.93
2023-02-11T18:59:31.242Z,31.12
2023-02-11T19:02:33.878Z,29.80
2023-02-11T19:05:48.591Z,23.90
2023-02-11T19:08:52.689Z,30.88
2023-02-11T19:11:57.222Z,29.48
2023-02-11T19:15:00.870Z,28.10
2023-02-11T19:18:04.148Z,31.30
2023-02-11T19:21:09.157Z,27.40
2023-02-11T19:24:15.586Z,39.00
2023-02-11T19:27:18.207Z,34.33
2023-02-11T19:30:21.675Z,29.63
2023-02-11T19:33:24.194Z,28.12
2023-02-11T19:36:27.711Z,28.80
2023-02-11T19:39:31.418Z,30.48
2023-02-11T19:42:34.747Z,29.63
2023-02-11T19:45:37.794Z,34.20
2023-02-11T19:48:48.667Z,28.52
2023-02-11T19:51:55.261Z,31.40
2023-02-11T19:55:00.542Z,30.77
2023-02-11T19:58:03.138Z,29.27
2023-02-11T20:01:11.073Z,29.45
2023-02-11T20:04:15.950Z,33.90
2023-02-11T20:07:18.800Z,31.45
2023-02-11T20:10:23.106Z,29.67
2023-02-11T20:13:25.944Z,34.38
2023-02-11T20:16:46.439Z,28.92
2023-02-11T20:19:50.802Z,29.48
2023-02-11T20:22:53.632Z,32.13
2023-02-11T20:25:56.500Z,28.52
2023-02-11T20:29:03.722Z,27.27
2023-02-11T20:32:07.470Z,29.55
2023-02-11T20:35:10.437Z,27.83
2023-02-11T20:38:14.045Z,24.48
2023-02-11T20:41:25.334Z,28.08
2023-02-11T20:44:28.178Z,24.15
2023-02-11T20:47:31.037Z,28.00
2023-02-11T20:50:34.592Z,32.47
2023-02-11T20:53:39.967Z,26.77
2023-02-11T20:56:45.522Z,26.33
2023-02-11T20:59:49.622Z,25.12
2023-02-11T21:02:53.463Z,23.30
2023-02-11T21:05:58.621Z,27.77
2023-02-11T21:09:02.443Z,25.50
2023-02-11T21:12:06.107Z,25.80
2023-02-11T21:15:10.506Z,27.62
2023-02-11T21:18:13.620Z,27.62
2023-02-11T21:21:17.551Z,25.50
2023-02-11T21:24:20.441Z,29.25
2023-02-11T21:27:23.999Z,28.15
2023-02-11T21:30:26.862Z,27.60
2023-02-11T21:33:32.163Z,27.30
2023-02-11T21:36:35.156Z,26.20
2023-02-11T21:39:38.151Z,26.27
2023-02-11T21:42:41.251Z,28.48
2023-02-11T21:45:45.562Z,26.15
2023-02-11T21:48:48.930Z,25.95
2023-02-11T21:51:51.772Z,22.05
2023-02-11T21:54:54.670Z,23.92
2023-02-11T21:57:57.493Z,28.20
2023-02-11T22:01:00.475Z,25.48
2023-02-11T22:04:04.118Z,24.65
2023-02-11T22:07:06.682Z,25.95
2023-02-11T22:10:10.470Z,23.67
2023-02-11T22:13:13.123Z,25.48
2023-02-11T22:16:17.098Z,26.83
2023-02-11T22:19:19.946Z,25.33
2023-02-11T22:22:23.866Z,22.27
2023-02-11T22:25:26.448Z,23.30
2023-02-11T22:28:30.116Z,24.87
2023-02-11T22:31:34.537Z,23.70
2023-02-11T22:34:38.023Z,25.65
2023-02-11T22:37:40.609Z,26.40
2023-02-11T22:40:44.081Z,22.90
2023-02-11T22:43:47.117Z,24.98
2023-02-11T22:46:51.497Z,23.83
2023-02-11T22:49:54.218Z,21.25
2023-02-11T22:52:57.435Z,23.27
2023-02-11T22:56:08.730Z,25.55
2023-02-11T22:59:14.660Z,27.15
2023-02-11T23:02:17.647Z,25.25
2023-02-11T23:05:21.225Z,24.08
2023-02-11T23:08:24.146Z,24.25
2023-02-11T23:17:34.260Z,24.52
2023-02-11T23:20:42.026Z,33.23
2023-02-11T23:23:45.871Z,25.33
2023-02-11T23:26:48.435Z,27.02
2023-02-11T23:29:51.630Z,24.00
2023-02-11T23:32:54.317Z,23.23
2023-02-11T23:35:57.539Z,22.08
2023-02-11T23:39:00.111Z,25.73
2023-02-11T23:42:03.382Z,27.75
2023-02-11T23:45:06.841Z,25.53
2023-02-11T23:48:10.010Z,23.17
2023-02-11T23:51:12.707Z,26.37
2023-02-11T23:54:15.868Z,23.80
2023-02-11T23:57:18.498Z,23.00
